sensor_id;sensor_type;location;lat;lon;timestamp;temperature;humidity
75113;DHT22;63692;47.338;8.520;2023-10-19T07:09:41;11.50;99.90
75113;DHT22;63692;47.338;8.520;2023-10-19T07:12:07;11.60;99.90
75113;DHT22;63692;47.338;8.520;2023-10-19T07:14:33;11.60;99.90
75113;DHT22;63692;47.338;8.520;2023-10-19T07:16:59;11.70;99.90
75113;DHT22;63692;47.338;8.520;2023-10-19T07:19:25;11.70;99.90
75113;DHT22;63692;47.338;8.520;2023-10-19T07:21:51;11.70;99.90
75113;DHT22;63692;47.338;8.520;2023-10-19T07:24:23;11.70;99.90
75113;DHT22;63692;47.338;8.520;2023-10-19T07:26:50;11.70;99.90
75113;DHT22;63692;47.338;8.520;2023-10-19T07:29:20;11.70;99.90
75113;DHT22;63692;47.338;8.520;2023-10-19T07:31:46;11.80;99.90
75113;DHT22;63692;47.338;8.520;2023-10-19T07:34:11;11.80;99.90
75113;DHT22;63692;47.338;8.520;2023-10-19T07:36:41;11.80;99.90
75113;DHT22;63692;47.338;8.520;2023-10-19T07:39:08;11.80;99.90
75113;DHT22;63692;47.338;8.520;2023-10-19T07:41:40;11.90;99.90
75113;DHT22;63692;47.338;8.520;2023-10-19T07:44:06;11.90;99.90
75113;DHT22;63692;47.338;8.520;2023-10-19T07:46:31;11.90;99.90
75113;DHT22;63692;47.338;8.520;2023-10-19T07:48:57;12.00;99.90
75113;DHT22;63692;47.338;8.520;2023-10-19T07:51:25;12.00;99.90
75113;DHT22;63692;47.338;8.520;2023-10-19T07:53:50;12.10;99.90
75113;DHT22;63692;47.338;8.520;2023-10-19T07:56:17;12.10;99.90
75113;DHT22;63692;47.338;8.520;2023-10-19T07:58:42;12.10;99.90
75113;DHT22;63692;47.338;8.520;2023-10-19T08:01:08;12.10;99.90
75113;DHT22;63692;47.338;8.520;2023-10-19T08:03:34;12.20;99.90
75113;DHT22;63692;47.338;8.520;2023-10-19T08:06:00;12.20;99.90
75113;DHT22;63692;47.338;8.520;2023-10-19T08:08:26;12.30;99.90
75113;DHT22;63692;47.338;8.520;2023-10-19T08:10:59;12.30;99.90
75113;DHT22;63692;47.338;8.520;2023-10-19T08:13:24;12.40;99.90
75113;DHT22;63692;47.338;8.520;2023-10-19T08:15:51;12.40;99.90
75113;DHT22;63692;47.338;8.520;2023-10-19T08:18:17;12.40;99.90
75113;DHT22;63692;47.338;8.520;2023-10-19T08:20:44;12.40;99.90
75113;DHT22;63692;47.338;8.520;2023-10-19T08:23:11;12.50;99.90
75113;DHT22;63692;47.338;8.520;2023-10-19T08:25:39;12.50;99.90
75113;DHT22;63692;47.338;8.520;2023-10-19T08:28:05;12.50;99.90
75113;DHT22;63692;47.338;8.520;2023-10-19T08:30:32;12.60;99.90
75113;DHT22;63692;47.338;8.520;2023-10-19T08:32:59;12.60;99.90
75113;DHT22;63692;47.338;8.520;2023-10-19T08:35:26;12.60;99.90
75113;DHT22;63692;47.338;8.520;2023-10-19T08:37:56;12.70;99.90
75113;DHT22;63692;47.338;8.520;2023-10-19T08:40:25;12.80;99.90
75113;DHT22;63692;47.338;8.520;2023-10-19T08:42:52;12.80;99.90
75113;DHT22;63692;47.338;8.520;2023-10-19T08:45:19;12.80;99.90
75113;DHT22;63692;47.338;8.520;2023-10-19T08:47:58;12.90;99.90
75113;DHT22;63692;47.338;8.520;2023-10-19T08:50:29;12.90;99.90
75113;DHT22;63692;47.338;8.520;2023-10-19T08:52:57;13.00;99.90
75113;DHT22;63692;47.338;8.520;2023-10-19T08:55:22;13.00;99.90
75113;DHT22;63692;47.338;8.520;2023-10-19T08:57:49;13.00;99.90
75113;DHT22;63692;47.338;8.520;2023-10-19T09:00:16;13.10;99.90
75113;DHT22;63692;47.338;8.520;2023-10-19T09:02:48;13.10;99.90
75113;DHT22;63692;47.338;8.520;2023-10-19T09:05:14;13.10;99.90
75113;DHT22;63692;47.338;8.520;2023-10-19T09:07:48;13.20;99.90
75113;DHT22;63692;47.338;8.520;2023-10-19T09:10:21;13.30;99.90
75113;DHT22;63692;47.338;8.520;2023-10-19T09:12:59;13.30;99.90
75113;DHT22;63692;47.338;8.520;2023-10-19T09:15:25;13.40;99.90
75113;DHT22;63692;47.338;8.520;2023-10-19T09:17:52;13.40;99.90
75113;DHT22;63692;47.338;8.520;2023-10-19T09:20:20;13.40;99.90
75113;DHT22;63692;47.338;8.520;2023-10-19T09:22:54;13.50;99.90
75113;DHT22;63692;47.338;8.520;2023-10-19T09:25:20;13.60;99.90
75113;DHT22;63692;47.338;8.520;2023-10-19T09:27:46;13.60;99.90
75113;DHT22;63692;47.338;8.520;2023-10-19T09:30:13;13.70;99.90
75113;DHT22;63692;47.338;8.520;2023-10-19T09:32:48;13.70;99.90
75113;DHT22;63692;47.338;8.520;2023-10-19T09:35:15;13.80;99.90
75113;DHT22;63692;47.338;8.520;2023-10-19T09:37:45;13.80;99.90
75113;DHT22;63692;47.338;8.520;2023-10-19T09:40:10;13.80;99.90
75113;DHT22;63692;47.338;8.520;2023-10-19T09:42:40;13.90;99.90
75113;DHT22;63692;47.338;8.520;2023-10-19T09:45:12;13.90;99.90
75113;DHT22;63692;47.338;8.520;2023-10-19T09:47:41;13.90;99.90
75113;DHT22;63692;47.338;8.520;2023-10-19T09:50:10;13.90;99.90
75113;DHT22;63692;47.338;8.520;2023-10-19T09:52:39;14.00;99.90
75113;DHT22;63692;47.338;8.520;2023-10-19T09:55:19;14.10;99.90
75113;DHT22;63692;47.338;8.520;2023-10-19T09:57:52;14.10;99.90
75113;DHT22;63692;47.338;8.520;2023-10-19T10:00:19;14.20;99.90
75113;DHT22;63692;47.338;8.520;2023-10-19T10:02:51;14.30;99.90
75113;DHT22;63692;47.338;8.520;2023-10-19T10:10:43;14.50;99.90
75113;DHT22;63692;47.338;8.520;2023-10-19T10:13:37;14.50;99.90
75113;DHT22;63692;47.338;8.520;2023-10-19T10:16:03;14.60;99.90
75113;DHT22;63692;47.338;8.520;2023-10-19T10:18:34;14.60;99.90
75113;DHT22;63692;47.338;8.520;2023-10-19T10:21:11;14.70;99.90
75113;DHT22;63692;47.338;8.520;2023-10-19T10:23:44;14.70;99.90
75113;DHT22;63692;47.338;8.520;2023-10-19T10:26:17;14.60;99.90
75113;DHT22;63692;47.338;8.520;2023-10-19T10:29:22;14.70;99.90
75113;DHT22;63692;47.338;8.520;2023-10-19T10:31:52;14.70;99.90
75113;DHT22;63692;47.338;8.520;2023-10-19T10:37:01;14.70;99.90
75113;DHT22;63692;47.338;8.520;2023-10-19T10:39:28;14.80;99.90
75113;DHT22;63692;47.338;8.520;2023-10-19T10:42:00;14.80;99.90
75113;DHT22;63692;47.338;8.520;2023-10-19T10:44:46;14.80;99.90
75113;DHT22;63692;47.338;8.520;2023-10-19T10:47:19;14.90;99.90
75113;DHT22;63692;47.338;8.520;2023-10-19T10:49:55;14.90;99.90
75113;DHT22;63692;47.338;8.520;2023-10-19T10:52:35;15.00;99.90
75113;DHT22;63692;47.338;8.520;2023-10-19T10:55:14;15.10;99.90
75113;DHT22;63692;47.338;8.520;2023-10-19T10:57:41;15.20;99.90
75113;DHT22;63692;47.338;8.520;2023-10-19T11:00:12;15.20;99.90
75113;DHT22;63692;47.338;8.520;2023-10-19T11:02:42;15.30;99.90
75113;DHT22;63692;47.338;8.520;2023-10-19T11:05:16;15.30;99.90
75113;DHT22;63692;47.338;8.520;2023-10-19T11:08:03;15.30;99.90
75113;DHT22;63692;47.338;8.520;2023-10-19T11:10:30;15.40;99.90
75113;DHT22;63692;47.338;8.520;2023-10-19T11:13:06;15.40;99.90
75113;DHT22;63692;47.338;8.520;2023-10-19T11:15:33;15.40;99.90
75113;DHT22;63692;47.338;8.520;2023-10-19T11:17:59;15.50;99.90
75113;DHT22;63692;47.338;8.520;2023-10-19T11:20:26;15.50;99.90
75113;DHT22;63692;47.338;8.520;2023-10-19T11:22:54;15.60;99.90
75113;DHT22;63692;47.338;8.520;2023-10-19T11:25:27;15.60;99.90
75113;DHT22;63692;47.338;8.520;2023-10-19T11:28:00;15.60;99.90
75113;DHT22;63692;47.338;8.520;2023-10-19T11:30:28;15.70;99.90
75113;DHT22;63692;47.338;8.520;2023-10-19T11:32:55;15.70;99.90
75113;DHT22;63692;47.338;8.520;2023-10-19T11:35:25;15.80;99.90
75113;DHT22;63692;47.338;8.520;2023-10-19T11:37:52;15.80;99.90
75113;DHT22;63692;47.338;8.520;2023-10-19T11:40:22;15.90;99.90
75113;DHT22;63692;47.338;8.520;2023-10-19T11:42:49;16.00;99.90
75113;DHT22;63692;47.338;8.520;2023-10-19T11:45:15;16.10;99.90
75113;DHT22;63692;47.338;8.520;2023-10-19T11:47:45;16.10;99.90
75113;DHT22;63692;47.338;8.520;2023-10-19T11:50:14;16.20;99.90
75113;DHT22;63692;47.338;8.520;2023-10-19T11:52:44;16.20;99.90
75113;DHT22;63692;47.338;8.520;2023-10-19T11:55:14;16.20;99.90
75113;DHT22;63692;47.338;8.520;2023-10-19T11:57:43;16.20;99.90
75113;DHT22;63692;47.338;8.520;2023-10-19T12:00:11;16.20;99.90
75113;DHT22;63692;47.338;8.520;2023-10-19T12:02:40;16.30;99.90
75113;DHT22;63692;47.338;8.520;2023-10-19T12:05:09;16.40;99.90
75113;DHT22;63692;47.338;8.520;2023-10-19T12:07:37;16.50;99.90
75113;DHT22;63692;47.338;8.520;2023-10-19T12:10:08;16.60;99.90
75113;DHT22;63692;47.338;8.520;2023-10-19T12:12:38;16.60;99.90
75113;DHT22;63692;47.338;8.520;2023-10-19T12:15:04;16.70;99.90
75113;DHT22;63692;47.338;8.520;2023-10-19T12:17:34;16.70;99.90
75113;DHT22;63692;47.338;8.520;2023-10-19T12:19:59;16.80;99.90
75113;DHT22;63692;47.338;8.520;2023-10-19T12:22:25;16.80;99.90
75113;DHT22;63692;47.338;8.520;2023-10-19T12:24:57;16.80;99.90
75113;DHT22;63692;47.338;8.520;2023-10-19T12:27:24;16.80;99.90
75113;DHT22;63692;47.338;8.520;2023-10-19T12:29:51;16.90;99.90
75113;DHT22;63692;47.338;8.520;2023-10-19T12:32:18;16.90;99.90
75113;DHT22;63692;47.338;8.520;2023-10-19T12:34:44;16.80;99.90
75113;DHT22;63692;47.338;8.520;2023-10-19T12:37:10;16.90;99.90
75113;DHT22;63692;47.338;8.520;2023-10-19T12:39:38;16.90;99.90
75113;DHT22;63692;47.338;8.520;2023-10-19T12:42:15;16.90;99.90
75113;DHT22;63692;47.338;8.520;2023-10-19T12:44:40;16.90;99.90
75113;DHT22;63692;47.338;8.520;2023-10-19T12:47:09;16.90;99.90
75113;DHT22;63692;47.338;8.520;2023-10-19T12:49:41;16.90;99.90
75113;DHT22;63692;47.338;8.520;2023-10-19T12:52:08;16.90;99.90
75113;DHT22;63692;47.338;8.520;2023-10-19T12:54:34;17.00;99.90
75113;DHT22;63692;47.338;8.520;2023-10-19T12:57:01;17.00;99.90
75113;DHT22;63692;47.338;8.520;2023-10-19T12:59:32;17.00;99.90
75113;DHT22;63692;47.338;8.520;2023-10-19T13:01:58;17.10;99.90
75113;DHT22;63692;47.338;8.520;2023-10-19T13:04:24;17.10;99.90
75113;DHT22;63692;47.338;8.520;2023-10-19T13:06:51;17.20;99.90
75113;DHT22;63692;47.338;8.520;2023-10-19T13:09:17;17.20;99.90
75113;DHT22;63692;47.338;8.520;2023-10-19T13:11:59;17.40;99.90
75113;DHT22;63692;47.338;8.520;2023-10-19T13:14:25;17.60;99.90
75113;DHT22;63692;47.338;8.520;2023-10-19T13:16:51;17.80;99.90
75113;DHT22;63692;47.338;8.520;2023-10-19T13:19:18;17.90;99.90
75113;DHT22;63692;47.338;8.520;2023-10-19T13:21:50;17.90;99.90
75113;DHT22;63692;47.338;8.520;2023-10-19T13:24:17;18.00;99.90
75113;DHT22;63692;47.338;8.520;2023-10-19T13:26:44;18.00;99.90
75113;DHT22;63692;47.338;8.520;2023-10-19T13:29:12;18.00;99.90
75113;DHT22;63692;47.338;8.520;2023-10-19T13:31:38;18.00;99.90
75113;DHT22;63692;47.338;8.520;2023-10-19T13:34:04;18.00;99.90
75113;DHT22;63692;47.338;8.520;2023-10-19T13:36:36;18.00;99.90
75113;DHT22;63692;47.338;8.520;2023-10-19T13:39:02;18.00;99.90
75113;DHT22;63692;47.338;8.520;2023-10-19T13:41:28;18.30;99.90
75113;DHT22;63692;47.338;8.520;2023-10-19T13:43:54;18.70;99.90
75113;DHT22;63692;47.338;8.520;2023-10-19T13:46:20;19.10;99.90
75113;DHT22;63692;47.338;8.520;2023-10-19T13:48:49;19.50;99.90
75113;DHT22;63692;47.338;8.520;2023-10-19T13:51:16;19.60;99.90
75113;DHT22;63692;47.338;8.520;2023-10-19T13:53:44;19.70;99.90
75113;DHT22;63692;47.338;8.520;2023-10-19T13:56:11;19.60;99.90
75113;DHT22;63692;47.338;8.520;2023-10-19T13:58:37;19.70;99.90
75113;DHT22;63692;47.338;8.520;2023-10-19T14:01:07;20.10;99.90
75113;DHT22;63692;47.338;8.520;2023-10-19T14:03:34;20.20;99.90
75113;DHT22;63692;47.338;8.520;2023-10-19T14:06:00;20.60;99.90
75113;DHT22;63692;47.338;8.520;2023-10-19T14:08:26;20.90;99.90
75113;DHT22;63692;47.338;8.520;2023-10-19T14:10:51;20.80;99.90
75113;DHT22;63692;47.338;8.520;2023-10-19T14:13:17;20.60;99.90
75113;DHT22;63692;47.338;8.520;2023-10-19T14:15:43;20.50;99.90
75113;DHT22;63692;47.338;8.520;2023-10-19T14:18:09;20.50;99.90
75113;DHT22;63692;47.338;8.520;2023-10-19T14:20:36;21.10;99.90
75113;DHT22;63692;47.338;8.520;2023-10-19T14:23:04;21.40;99.90
75113;DHT22;63692;47.338;8.520;2023-10-19T14:25:30;21.80;99.90
75113;DHT22;63692;47.338;8.520;2023-10-19T14:27:56;21.70;99.90
75113;DHT22;63692;47.338;8.520;2023-10-19T14:30:27;21.50;99.90
75113;DHT22;63692;47.338;8.520;2023-10-19T14:32:54;21.30;99.90
75113;DHT22;63692;47.338;8.520;2023-10-19T14:35:21;21.20;99.90
75113;DHT22;63692;47.338;8.520;2023-10-19T14:37:52;21.10;99.90
75113;DHT22;63692;47.338;8.520;2023-10-19T14:40:25;21.30;99.90
75113;DHT22;63692;47.338;8.520;2023-10-19T14:42:55;21.60;99.90
75113;DHT22;63692;47.338;8.520;2023-10-19T14:45:25;21.90;99.90
75113;DHT22;63692;47.338;8.520;2023-10-19T14:47:52;21.70;99.90
75113;DHT22;63692;47.338;8.520;2023-10-19T14:50:20;21.60;99.90
75113;DHT22;63692;47.338;8.520;2023-10-19T14:52:47;21.50;99.90
75113;DHT22;63692;47.338;8.520;2023-10-19T14:55:14;21.30;99.90
75113;DHT22;63692;47.338;8.520;2023-10-19T14:57:42;21.10;99.90
75113;DHT22;63692;47.338;8.520;2023-10-19T15:00:10;20.80;99.90
75113;DHT22;63692;47.338;8.520;2023-10-19T15:02:48;20.60;99.90
75113;DHT22;63692;47.338;8.520;2023-10-19T15:05:16;20.30;99.90
75113;DHT22;63692;47.338;8.520;2023-10-19T15:07:42;20.10;99.90
75113;DHT22;63692;47.338;8.520;2023-10-19T15:10:12;19.90;99.90
75113;DHT22;63692;47.338;8.520;2023-10-19T15:12:39;19.70;99.90
75113;DHT22;63692;47.338;8.520;2023-10-19T15:15:08;19.50;99.90
75113;DHT22;63692;47.338;8.520;2023-10-19T15:17:37;19.30;99.90
75113;DHT22;63692;47.338;8.520;2023-10-19T15:20:07;19.10;99.90
75113;DHT22;63692;47.338;8.520;2023-10-19T15:22:38;19.00;99.90
75113;DHT22;63692;47.338;8.520;2023-10-19T15:25:05;18.90;99.90
75113;DHT22;63692;47.338;8.520;2023-10-19T15:27:36;18.70;99.90
75113;DHT22;63692;47.338;8.520;2023-10-19T15:30:02;18.60;99.90
75113;DHT22;63692;47.338;8.520;2023-10-19T15:32:31;18.50;99.90
75113;DHT22;63692;47.338;8.520;2023-10-19T15:34:57;18.40;99.90
75113;DHT22;63692;47.338;8.520;2023-10-19T15:37:23;18.30;99.90
75113;DHT22;63692;47.338;8.520;2023-10-19T15:39:51;18.20;99.90
75113;DHT22;63692;47.338;8.520;2023-10-19T15:42:18;18.10;99.90
75113;DHT22;63692;47.338;8.520;2023-10-19T15:44:44;18.00;99.90
75113;DHT22;63692;47.338;8.520;2023-10-19T15:47:11;18.00;99.90
75113;DHT22;63692;47.338;8.520;2023-10-19T15:49:46;17.90;99.90
75113;DHT22;63692;47.338;8.520;2023-10-19T15:52:13;17.80;99.90
75113;DHT22;63692;47.338;8.520;2023-10-19T15:54:39;17.80;99.90
75113;DHT22;63692;47.338;8.520;2023-10-19T15:57:04;17.70;99.90
75113;DHT22;63692;47.338;8.520;2023-10-19T15:59:31;17.60;99.90
75113;DHT22;63692;47.338;8.520;2023-10-19T16:01:56;17.60;99.90
75113;DHT22;63692;47.338;8.520;2023-10-19T16:04:23;17.50;99.90
75113;DHT22;63692;47.338;8.520;2023-10-19T16:06:49;17.50;99.90
75113;DHT22;63692;47.338;8.520;2023-10-19T16:09:14;17.40;99.90
75113;DHT22;63692;47.338;8.520;2023-10-19T16:11:41;17.40;99.90
75113;DHT22;63692;47.338;8.520;2023-10-19T16:14:07;17.40;99.90
75113;DHT22;63692;47.338;8.520;2023-10-19T16:16:32;17.30;99.90
75113;DHT22;63692;47.338;8.520;2023-10-19T16:18:58;17.30;99.90
75113;DHT22;63692;47.338;8.520;2023-10-19T16:21:24;17.30;99.90
75113;DHT22;63692;47.338;8.520;2023-10-19T16:23:51;17.20;99.90
75113;DHT22;63692;47.338;8.520;2023-10-19T16:26:16;17.20;99.90
75113;DHT22;63692;47.338;8.520;2023-10-19T16:28:42;17.10;99.90
75113;DHT22;63692;47.338;8.520;2023-10-19T16:31:07;17.10;99.90
75113;DHT22;63692;47.338;8.520;2023-10-19T16:33:37;17.00;99.90
75113;DHT22;63692;47.338;8.520;2023-10-19T16:36:03;17.00;99.90
75113;DHT22;63692;47.338;8.520;2023-10-19T16:38:29;17.00;99.90
75113;DHT22;63692;47.338;8.520;2023-10-19T16:41:01;17.00;99.90
75113;DHT22;63692;47.338;8.520;2023-10-19T16:43:26;16.90;99.90
75113;DHT22;63692;47.338;8.520;2023-10-19T16:45:54;16.90;99.90
75113;DHT22;63692;47.338;8.520;2023-10-19T16:48:19;16.90;99.90
75113;DHT22;63692;47.338;8.520;2023-10-19T16:50:46;16.80;99.90
75113;DHT22;63692;47.338;8.520;2023-10-19T16:53:11;16.80;99.90
75113;DHT22;63692;47.338;8.520;2023-10-19T16:55:38;16.80;99.90
75113;DHT22;63692;47.338;8.520;2023-10-19T16:58:03;16.80;99.90
75113;DHT22;63692;47.338;8.520;2023-10-19T17:00:31;16.80;99.90
75113;DHT22;63692;47.338;8.520;2023-10-19T17:02:58;16.70;99.90
75113;DHT22;63692;47.338;8.520;2023-10-19T17:05:25;16.70;99.90
75113;DHT22;63692;47.338;8.520;2023-10-19T17:07:53;16.70;99.90
75113;DHT22;63692;47.338;8.520;2023-10-19T17:10:20;16.70;99.90
75113;DHT22;63692;47.338;8.520;2023-10-19T17:12:47;16.70;99.90
75113;DHT22;63692;47.338;8.520;2023-10-19T17:15:12;16.70;99.90
75113;DHT22;63692;47.338;8.520;2023-10-19T17:17:39;16.70;99.90
75113;DHT22;63692;47.338;8.520;2023-10-19T17:20:05;16.70;99.90
75113;DHT22;63692;47.338;8.520;2023-10-19T17:22:34;16.70;99.90
75113;DHT22;63692;47.338;8.520;2023-10-19T17:24:59;16.70;99.90
75113;DHT22;63692;47.338;8.520;2023-10-19T17:27:25;16.70;99.90
75113;DHT22;63692;47.338;8.520;2023-10-19T17:29:51;16.60;99.90
75113;DHT22;63692;47.338;8.520;2023-10-19T17:32:17;16.60;99.90
75113;DHT22;63692;47.338;8.520;2023-10-19T17:34:42;16.60;99.90
75113;DHT22;63692;47.338;8.520;2023-10-19T17:37:08;16.60;99.90
75113;DHT22;63692;47.338;8.520;2023-10-19T17:39:34;16.50;99.90
75113;DHT22;63692;47.338;8.520;2023-10-19T17:42:00;16.60;99.90
75113;DHT22;63692;47.338;8.520;2023-10-19T17:44:26;16.50;99.90
75113;DHT22;63692;47.338;8.520;2023-10-19T17:46:52;16.50;99.90
75113;DHT22;63692;47.338;8.520;2023-10-19T17:49:18;16.50;99.90
75113;DHT22;63692;47.338;8.520;2023-10-19T17:51:44;16.40;99.90
75113;DHT22;63692;47.338;8.520;2023-10-19T17:54:10;16.40;99.90
75113;DHT22;63692;47.338;8.520;2023-10-19T17:56:37;16.40;99.90
75113;DHT22;63692;47.338;8.520;2023-10-19T17:59:03;16.30;99.90
75113;DHT22;63692;47.338;8.520;2023-10-19T18:01:30;16.30;99.90
75113;DHT22;63692;47.338;8.520;2023-10-19T18:03:56;16.30;99.90
75113;DHT22;63692;47.338;8.520;2023-10-19T18:06:22;16.30;99.90
75113;DHT22;63692;47.338;8.520;2023-10-19T18:08:47;16.30;99.90
75113;DHT22;63692;47.338;8.520;2023-10-19T18:11:15;16.30;99.90
75113;DHT22;63692;47.338;8.520;2023-10-19T18:13:41;16.20;99.90
75113;DHT22;63692;47.338;8.520;2023-10-19T18:16:07;16.20;99.90
75113;DHT22;63692;47.338;8.520;2023-10-19T18:21:10;16.20;99.90
75113;DHT22;63692;47.338;8.520;2023-10-19T18:23:42;16.20;99.90
